createdAt,value
2019-02-23T00:05:04.032Z,10.20
2019-02-23T00:10:06.880Z,4.27
2019-02-23T00:15:12.721Z,5.10
2019-02-23T00:20:14.612Z,9.90
2019-02-23T00:25:20.152Z,5.60
2019-02-23T00:30:24.137Z,5.90
2019-02-23T00:35:27.713Z,7.17
2019-02-23T00:40:32.375Z,5.43
2019-02-23T00:45:36.239Z,5.10
2019-02-23T00:50:38.014Z,3.37
2019-02-23T00:55:41.583Z,3.77
2019-02-23T01:00:45.847Z,9.07
2019-02-23T01:05:47.708Z,7.53
2019-02-23T01:10:57.755Z,4.90
2019-02-23T01:15:58.350Z,18.52
2019-02-23T01:21:01.449Z,9.50
2019-02-23T01:26:03.404Z,6.53
2019-02-23T01:31:05.441Z,3.63
2019-02-23T01:36:07.473Z,4.07
2019-02-23T01:41:09.460Z,10.50
2019-02-23T01:46:13.081Z,4.70
2019-02-23T01:51:14.859Z,7.47
2019-02-23T01:56:16.982Z,4.20
2019-02-23T02:01:19.542Z,5.17
2019-02-23T02:06:21.347Z,4.30
2019-02-23T02:11:25.333Z,7.83
2019-02-23T02:16:33.120Z,4.07
2019-02-23T02:21:36.969Z,4.47
2019-02-23T02:26:38.740Z,11.47
2019-02-23T02:31:41.025Z,9.43
2019-02-23T02:36:42.799Z,6.20
2019-02-23T02:41:45.441Z,5.10
2019-02-23T02:46:47.520Z,6.10
2019-02-23T02:51:49.423Z,6.00
2019-02-23T02:56:51.173Z,4.37
2019-02-23T03:01:53.383Z,11.03
2019-02-23T03:06:57.126Z,4.73
2019-02-23T03:11:59.722Z,4.33
2019-02-23T03:17:05.967Z,10.13
2019-02-23T03:22:07.847Z,5.23
2019-02-23T03:27:09.649Z,9.10
2019-02-23T03:32:12.606Z,4.50
2019-02-23T03:37:14.405Z,3.83
2019-02-23T03:42:16.179Z,7.37
2019-02-23T03:47:18.489Z,7.57
2019-02-23T03:52:20.202Z,4.77
2019-02-23T03:57:22.036Z,6.23
2019-02-23T04:02:23.765Z,4.93
2019-02-23T04:07:25.610Z,3.30
2019-02-23T04:12:27.380Z,4.70
2019-02-23T04:17:29.179Z,4.60
2019-02-23T04:22:31.681Z,4.33
2019-02-23T04:27:33.469Z,5.00
2019-02-23T04:32:35.192Z,4.00
2019-02-23T04:37:37.372Z,4.13
2019-02-23T04:42:39.081Z,5.97
2019-02-23T04:47:40.671Z,4.60
2019-02-23T04:52:42.381Z,3.83
2019-02-23T04:57:44.001Z,4.10
2019-02-23T05:02:45.712Z,7.43
2019-02-23T05:07:47.477Z,4.47
2019-02-23T05:12:49.293Z,5.73
2019-02-23T05:17:51.026Z,6.70
2019-02-23T05:22:55.230Z,5.13
2019-02-23T05:27:57.520Z,8.17
2019-02-23T05:32:59.285Z,4.20
2019-02-23T05:38:01.138Z,4.50
2019-02-23T05:43:02.876Z,8.73
2019-02-23T05:48:04.702Z,5.73
2019-02-23T05:53:06.507Z,8.67
2019-02-23T05:58:08.769Z,4.73
2019-02-23T06:03:10.510Z,5.87
2019-02-23T06:08:12.697Z,5.13
2019-02-23T06:13:14.448Z,4.47
2019-02-23T06:18:16.181Z,5.80
2019-02-23T06:23:18.066Z,7.93
2019-02-23T06:28:19.816Z,5.23
2019-02-23T06:33:22.255Z,6.40
2019-02-23T06:38:24.987Z,10.27
2019-02-23T06:43:26.794Z,6.23
2019-02-23T06:48:29.007Z,9.40
2019-02-23T06:53:30.731Z,8.40
2019-02-23T06:58:34.152Z,6.57
2019-02-23T07:03:35.994Z,6.60
2019-02-23T07:08:37.798Z,6.90
2019-02-23T07:13:39.565Z,7.70
2019-02-23T07:18:41.302Z,11.23
2019-02-23T07:23:44.563Z,10.93
2019-02-23T07:28:46.697Z,8.00
2019-02-23T07:33:50.274Z,9.77
2019-02-23T07:38:52.416Z,9.77
2019-02-23T07:43:54.525Z,12.50
2019-02-23T07:48:59.371Z,10.67
2019-02-23T07:54:01.581Z,22.03
2019-02-23T07:59:03.457Z,11.00
2019-02-23T08:04:05.577Z,8.50
2019-02-23T08:09:07.314Z,13.10
2019-02-23T08:14:09.493Z,10.73
2019-02-23T08:19:11.700Z,13.23
2019-02-23T08:24:17.632Z,12.77
2019-02-23T08:29:19.498Z,9.17
2019-02-23T08:34:23.593Z,10.00
2019-02-23T08:39:25.443Z,17.53
2019-02-23T08:44:28.886Z,9.60
2019-02-23T08:49:30.615Z,13.47
2019-02-23T08:54:32.933Z,12.40
2019-02-23T08:59:34.696Z,7.13
2019-02-23T09:04:36.499Z,11.07
2019-02-23T09:09:38.221Z,12.60
2019-02-23T09:14:39.954Z,9.20
2019-02-23T09:19:41.684Z,7.80
2019-02-23T09:24:44.410Z,11.13
2019-02-23T09:29:46.310Z,9.23
2019-02-23T09:34:48.029Z,13.83
2019-02-23T09:39:49.805Z,9.80
2019-02-23T09:44:52.031Z,9.27
2019-02-23T09:49:53.770Z,9.83
2019-02-23T09:54:55.927Z,11.47
2019-02-23T09:59:57.728Z,11.00
2019-02-23T10:04:59.481Z,12.13
2019-02-23T10:10:01.227Z,10.90
2019-02-23T10:15:05.080Z,9.33
2019-02-23T10:20:09.292Z,13.30
2019-02-23T10:25:11.931Z,9.53
2019-02-23T10:30:15.339Z,12.73
2019-02-23T10:35:17.073Z,9.33
2019-02-23T10:40:18.848Z,12.10
2019-02-23T10:45:20.642Z,7.83
2019-02-23T10:50:22.379Z,16.03
2019-02-23T10:55:24.856Z,10.93
2019-02-23T11:00:26.865Z,9.93
2019-02-23T11:05:28.583Z,11.20
2019-02-23T11:10:30.339Z,9.00
2019-02-23T11:15:32.154Z,11.30
2019-02-23T11:20:34.254Z,13.10
2019-02-23T11:25:39.237Z,7.53
2019-02-23T11:30:40.979Z,9.70
2019-02-23T11:35:42.732Z,8.63
2019-02-23T11:40:51.435Z,11.00
2019-02-23T11:45:53.310Z,12.00
2019-02-23T11:50:55.002Z,9.90
2019-02-23T11:55:56.968Z,10.70
2019-02-23T12:01:15.904Z,9.50
2019-02-23T12:06:17.823Z,13.13
2019-02-23T12:11:20.034Z,13.93
2019-02-23T12:16:21.832Z,13.20
2019-02-23T12:21:23.630Z,16.93
2019-02-23T12:26:25.947Z,8.80
2019-02-23T12:31:28.187Z,10.90
2019-02-23T12:36:29.967Z,11.60
2019-02-23T12:41:31.704Z,9.73
2019-02-23T12:46:33.416Z,12.63
2019-02-23T12:51:35.139Z,13.07
2019-02-23T12:56:37.683Z,11.93
2019-02-23T13:01:40.017Z,10.30
2019-02-23T13:06:41.798Z,11.30
2019-02-23T13:11:47.188Z,12.20
2019-02-23T13:16:52.676Z,12.43
2019-02-23T13:22:07.182Z,9.23
2019-02-23T13:27:24.519Z,11.13
2019-02-23T13:32:39.468Z,15.57
2019-02-23T13:37:48.244Z,13.27
2019-02-23T13:43:16.567Z,11.07
2019-02-23T13:48:45.001Z,10.57
2019-02-23T13:54:10.567Z,11.63
2019-02-23T13:59:27.834Z,18.80
2019-02-23T14:04:42.750Z,13.60
2019-02-23T14:09:53.986Z,14.77
2019-02-23T14:15:05.414Z,11.83
2019-02-23T14:20:19.728Z,18.03
2019-02-23T14:25:37.288Z,12.10
2019-02-23T14:31:04.315Z,11.93
2019-02-23T14:36:19.402Z,18.03
2019-02-23T14:41:40.151Z,11.77
2019-02-23T14:47:00.525Z,14.47
2019-02-23T14:52:22.365Z,10.63
2019-02-23T14:57:39.936Z,11.20
2019-02-23T15:02:48.221Z,8.77
2019-02-23T15:08:13.246Z,10.03
2019-02-23T15:13:39.710Z,7.17
2019-02-23T15:19:11.141Z,12.57
2019-02-23T15:24:25.542Z,8.20
2019-02-23T15:29:31.339Z,8.23
2019-02-23T15:35:00.543Z,11.67
2019-02-23T15:40:20.894Z,10.10
2019-02-23T15:45:32.215Z,12.80
2019-02-23T15:50:34.445Z,12.07
2019-02-23T15:55:36.049Z,14.60
2019-02-23T16:00:37.800Z,12.37
2019-02-23T16:05:39.434Z,10.63
2019-02-23T16:10:41.101Z,9.10
2019-02-23T16:15:43.584Z,15.00
2019-02-23T16:20:45.336Z,13.60
2019-02-23T16:25:47.096Z,11.67
2019-02-23T16:30:48.870Z,13.10
2019-02-23T16:35:51.059Z,16.43
2019-02-23T16:40:52.735Z,15.70
2019-02-23T16:45:54.987Z,17.30
2019-02-23T16:50:56.799Z,17.80
2019-02-23T16:55:58.580Z,17.43
2019-02-23T17:01:00.312Z,15.40
2019-02-23T17:06:07.158Z,21.37
2019-02-23T17:11:09.353Z,17.90
2019-02-23T17:16:11.323Z,21.73
2019-02-23T17:21:13.115Z,21.17
2019-02-23T17:26:14.987Z,22.30
2019-02-23T17:31:18.905Z,17.20
2019-02-23T17:36:20.925Z,18.50
2019-02-23T17:41:23.046Z,21.53
2019-02-23T17:46:25.582Z,25.80
2019-02-23T17:51:27.424Z,26.53
2019-02-23T17:56:33.084Z,21.20
2019-02-23T18:01:34.870Z,22.80
2019-02-23T18:06:36.785Z,27.07
2019-02-23T18:11:38.968Z,21.60
2019-02-23T18:16:45.091Z,23.70
2019-02-23T18:21:47.920Z,27.03
2019-02-23T18:26:49.731Z,97.73
2019-02-23T18:31:51.632Z,35.47
2019-02-23T18:36:53.762Z,25.20
2019-02-23T18:41:56.444Z,22.63
2019-02-23T18:46:58.880Z,17.93
2019-02-23T18:52:00.591Z,20.07
2019-02-23T18:57:02.237Z,20.23
2019-02-23T19:02:04.018Z,19.23
2019-02-23T19:07:06.140Z,20.57
2019-02-23T19:12:08.255Z,17.10
2019-02-23T19:17:10.673Z,18.80
2019-02-23T19:22:16.743Z,14.60
2019-02-23T19:27:19.028Z,18.00
2019-02-23T19:32:20.897Z,21.00
2019-02-23T19:37:22.890Z,24.07
2019-02-23T19:42:24.688Z,23.60
2019-02-23T19:47:27.085Z,15.13
2019-02-23T19:52:29.251Z,18.83
2019-02-23T19:57:31.179Z,17.13
2019-02-23T20:02:33.028Z,16.53
2019-02-23T20:07:34.793Z,27.23
2019-02-23T20:12:36.491Z,21.53
2019-02-23T20:17:38.150Z,18.27
2019-02-23T20:22:39.863Z,26.20
2019-02-23T20:27:42.024Z,18.60
2019-02-23T20:32:43.688Z,23.83
2019-02-23T20:37:46.285Z,19.53
2019-02-23T20:42:48.005Z,20.07
2019-02-23T20:47:49.687Z,19.47
2019-02-23T20:52:51.700Z,18.17
2019-02-23T20:57:53.302Z,21.80
2019-02-23T21:02:55.305Z,19.40
2019-02-23T21:07:57.031Z,16.13
2019-02-23T21:12:59.317Z,23.23
2019-02-23T21:18:01.123Z,17.93
2019-02-23T21:23:03.123Z,23.23
2019-02-23T21:28:05.126Z,25.43
2019-02-23T21:33:07.242Z,21.13
2019-02-23T21:38:08.968Z,24.43
2019-02-23T21:43:10.744Z,23.37
2019-02-23T21:48:12.430Z,26.17
2019-02-23T21:53:14.145Z,23.93
2019-02-23T21:58:15.789Z,22.80
2019-02-23T22:03:17.413Z,26.13
2019-02-23T22:08:19.542Z,18.13
2019-02-23T22:13:21.243Z,22.87
2019-02-23T22:18:22.900Z,21.90
2019-02-23T22:23:24.641Z,18.57
2019-02-23T22:28:26.339Z,15.70
2019-02-23T22:33:28.143Z,19.83
2019-02-23T22:38:29.848Z,19.63
2019-02-23T22:43:31.649Z,22.53
2019-02-23T22:48:33.509Z,19.10
2019-02-23T22:53:35.882Z,24.67
2019-02-23T22:58:37.973Z,21.77
2019-02-23T23:03:39.987Z,25.93
2019-02-23T23:08:41.677Z,17.63
2019-02-23T23:13:43.325Z,21.47
2019-02-23T23:18:45.024Z,24.03
2019-02-23T23:23:46.622Z,16.77
2019-02-23T23:28:51.152Z,18.57
2019-02-23T23:33:53.061Z,17.60
2019-02-23T23:38:57.052Z,15.97
2019-02-23T23:43:59.618Z,14.97
2019-02-23T23:49:01.295Z,13.00
2019-02-23T23:54:03.017Z,16.00
2019-02-23T23:59:04.676Z,18.43
